sensor_id;sensor_type;location;lat;lon;timestamp;pressure;altitude;pressure_sealevel;temperature;humidity
9740;BME280;4909;42.680;26.324;2023-01-29T00:00:20;98692.94;;;5.14;89.54
9740;BME280;4909;42.680;26.324;2023-01-29T00:02:47;98698.59;;;5.36;90.00
9740;BME280;4909;42.680;26.324;2023-01-29T00:05:15;98693.47;;;5.30;89.84
9740;BME280;4909;42.680;26.324;2023-01-29T00:07:42;98700.84;;;5.14;90.12
9740;BME280;4909;42.680;26.324;2023-01-29T00:10:10;98683.63;;;5.00;90.87
9740;BME280;4909;42.680;26.324;2023-01-29T00:12:37;98702.22;;;4.91;91.19
9740;BME280;4909;42.680;26.324;2023-01-29T00:15:04;98692.38;;;5.00;92.29
9740;BME280;4909;42.680;26.324;2023-01-29T00:17:31;98694.03;;;5.04;91.93
9740;BME280;4909;42.680;26.324;2023-01-29T00:19:58;98690.50;;;5.07;92.34
9740;BME280;4909;42.680;26.324;2023-01-29T00:22:26;98686.03;;;5.10;92.02
9740;BME280;4909;42.680;26.324;2023-01-29T00:24:55;98699.41;;;5.40;91.35
9740;BME280;4909;42.680;26.324;2023-01-29T00:27:22;98691.03;;;5.59;90.98
9740;BME280;4909;42.680;26.324;2023-01-29T00:29:48;98692.03;;;5.55;90.57
9740;BME280;4909;42.680;26.324;2023-01-29T00:32:33;98694.69;;;5.52;91.23
9740;BME280;4909;42.680;26.324;2023-01-29T00:35:00;98689.53;;;5.49;90.26
9740;BME280;4909;42.680;26.324;2023-01-29T00:37:29;98677.88;;;5.59;89.12
9740;BME280;4909;42.680;26.324;2023-01-29T00:39:56;98698.06;;;5.59;90.91
9740;BME280;4909;42.680;26.324;2023-01-29T00:42:23;98691.78;;;5.66;90.10
9740;BME280;4909;42.680;26.324;2023-01-29T00:45:22;98697.28;;;5.55;90.60
9740;BME280;4909;42.680;26.324;2023-01-29T00:47:49;98708.25;;;4.96;91.30
9740;BME280;4909;42.680;26.324;2023-01-29T00:50:15;98706.38;;;5.02;92.31
9740;BME280;4909;42.680;26.324;2023-01-29T00:52:44;98702.69;;;5.11;91.37
9740;BME280;4909;42.680;26.324;2023-01-29T00:55:11;98661.41;;;4.73;91.06
9740;BME280;4909;42.680;26.324;2023-01-29T00:57:37;98719.03;;;4.84;92.08
9740;BME280;4909;42.680;26.324;2023-01-29T01:00:07;98718.28;;;4.78;92.92
9740;BME280;4909;42.680;26.324;2023-01-29T01:02:35;98712.16;;;4.76;92.92
9740;BME280;4909;42.680;26.324;2023-01-29T01:05:19;98728.06;;;4.23;94.12
9740;BME280;4909;42.680;26.324;2023-01-29T01:07:49;98723.94;;;4.10;95.90
9740;BME280;4909;42.680;26.324;2023-01-29T01:10:19;98723.94;;;4.11;96.43
9740;BME280;4909;42.680;26.324;2023-01-29T01:12:46;98724.53;;;4.25;96.88
9740;BME280;4909;42.680;26.324;2023-01-29T01:15:13;98730.28;;;4.46;96.15
9740;BME280;4909;42.680;26.324;2023-01-29T01:17:39;98736.06;;;4.17;95.96
9740;BME280;4909;42.680;26.324;2023-01-29T01:20:08;98735.63;;;4.41;96.71
9740;BME280;4909;42.680;26.324;2023-01-29T01:22:35;98728.75;;;4.35;96.63
9740;BME280;4909;42.680;26.324;2023-01-29T01:25:04;98742.06;;;4.25;96.03
9740;BME280;4909;42.680;26.324;2023-01-29T01:27:30;98743.16;;;4.12;97.11
9740;BME280;4909;42.680;26.324;2023-01-29T01:29:59;98749.75;;;4.81;100.00
9740;BME280;4909;42.680;26.324;2023-01-29T01:32:25;98752.31;;;4.85;100.00
9740;BME280;4909;42.680;26.324;2023-01-29T01:34:52;98753.00;;;4.94;95.54
9740;BME280;4909;42.680;26.324;2023-01-29T01:37:19;98761.75;;;4.95;93.97
9740;BME280;4909;42.680;26.324;2023-01-29T01:39:46;98756.84;;;4.78;92.86
9740;BME280;4909;42.680;26.324;2023-01-29T01:42:14;98764.25;;;4.56;93.73
9740;BME280;4909;42.680;26.324;2023-01-29T01:44:52;98762.47;;;4.58;94.26
9740;BME280;4909;42.680;26.324;2023-01-29T01:47:21;98745.72;;;4.16;94.83
9740;BME280;4909;42.680;26.324;2023-01-29T01:49:50;98755.38;;;4.14;96.46
9740;BME280;4909;42.680;26.324;2023-01-29T01:52:18;98750.94;;;4.18;96.21
9740;BME280;4909;42.680;26.324;2023-01-29T01:54:46;98760.41;;;4.26;95.89
9740;BME280;4909;42.680;26.324;2023-01-29T01:57:17;98757.91;;;4.20;96.93
9740;BME280;4909;42.680;26.324;2023-01-29T01:59:54;98764.41;;;4.49;95.61
9740;BME280;4909;42.680;26.324;2023-01-29T02:02:21;98765.78;;;4.69;94.53
9740;BME280;4909;42.680;26.324;2023-01-29T02:05:07;98767.50;;;4.70;93.58
9740;BME280;4909;42.680;26.324;2023-01-29T02:07:53;98765.81;;;4.66;93.00
9740;BME280;4909;42.680;26.324;2023-01-29T02:10:41;98769.41;;;4.62;93.93
9740;BME280;4909;42.680;26.324;2023-01-29T02:13:09;98763.28;;;4.62;93.18
9740;BME280;4909;42.680;26.324;2023-01-29T02:15:37;98770.25;;;4.64;93.66
9740;BME280;4909;42.680;26.324;2023-01-29T02:18:06;98777.97;;;4.73;94.00
9740;BME280;4909;42.680;26.324;2023-01-29T02:20:34;98758.72;;;4.70;93.62
9740;BME280;4909;42.680;26.324;2023-01-29T02:23:29;98772.34;;;4.92;92.95
9740;BME280;4909;42.680;26.324;2023-01-29T02:26:18;98724.22;;;4.42;93.33
9740;BME280;4909;42.680;26.324;2023-01-29T02:28:51;98782.28;;;4.76;93.72
9740;BME280;4909;42.680;26.324;2023-01-29T02:31:27;98794.53;;;4.77;93.19
9740;BME280;4909;42.680;26.324;2023-01-29T02:34:05;98786.03;;;4.63;92.70
9740;BME280;4909;42.680;26.324;2023-01-29T02:36:40;98793.16;;;4.58;93.90
9740;BME280;4909;42.680;26.324;2023-01-29T02:39:15;98784.44;;;4.04;96.13
9740;BME280;4909;42.680;26.324;2023-01-29T02:41:53;98777.50;;;4.01;97.37
9740;BME280;4909;42.680;26.324;2023-01-29T02:44:29;98794.63;;;4.22;97.48
9740;BME280;4909;42.680;26.324;2023-01-29T02:47:01;98789.31;;;4.26;97.07
9740;BME280;4909;42.680;26.324;2023-01-29T02:49:32;98798.19;;;4.19;96.17
9740;BME280;4909;42.680;26.324;2023-01-29T02:52:05;98798.44;;;4.04;97.36
9740;BME280;4909;42.680;26.324;2023-01-29T02:54:38;98795.66;;;4.15;97.49
9740;BME280;4909;42.680;26.324;2023-01-29T02:57:09;98800.03;;;4.13;98.38
9740;BME280;4909;42.680;26.324;2023-01-29T02:59:47;98800.13;;;4.07;99.58
9740;BME280;4909;42.680;26.324;2023-01-29T03:02:19;98766.50;;;3.76;99.71
9740;BME280;4909;42.680;26.324;2023-01-29T03:04:59;98796.91;;;3.89;100.00
9740;BME280;4909;42.680;26.324;2023-01-29T03:07:30;98793.59;;;3.78;100.00
9740;BME280;4909;42.680;26.324;2023-01-29T03:10:14;98802.41;;;3.74;100.00
9740;BME280;4909;42.680;26.324;2023-01-29T03:12:43;98799.84;;;3.71;100.00
9740;BME280;4909;42.680;26.324;2023-01-29T03:15:17;98807.63;;;3.76;100.00
9740;BME280;4909;42.680;26.324;2023-01-29T03:17:53;98805.22;;;3.61;100.00
9740;BME280;4909;42.680;26.324;2023-01-29T03:20:25;98801.75;;;3.59;100.00
9740;BME280;4909;42.680;26.324;2023-01-29T03:22:59;98799.91;;;3.64;100.00
9740;BME280;4909;42.680;26.324;2023-01-29T03:25:27;98794.94;;;3.45;100.00
9740;BME280;4909;42.680;26.324;2023-01-29T03:28:15;98816.41;;;3.75;100.00
9740;BME280;4909;42.680;26.324;2023-01-29T03:31:04;98811.41;;;3.55;100.00
9740;BME280;4909;42.680;26.324;2023-01-29T03:33:51;98815.06;;;3.45;100.00
9740;BME280;4909;42.680;26.324;2023-01-29T03:36:22;98813.44;;;3.35;100.00
9740;BME280;4909;42.680;26.324;2023-01-29T03:38:52;98814.19;;;3.46;100.00
9740;BME280;4909;42.680;26.324;2023-01-29T03:41:24;98816.75;;;3.49;100.00
9740;BME280;4909;42.680;26.324;2023-01-29T03:43:59;98809.25;;;3.20;100.00
9740;BME280;4909;42.680;26.324;2023-01-29T03:46:37;98822.47;;;3.11;100.00
9740;BME280;4909;42.680;26.324;2023-01-29T03:49:12;98813.41;;;3.38;100.00
9740;BME280;4909;42.680;26.324;2023-01-29T03:51:50;98819.28;;;3.58;100.00
9740;BME280;4909;42.680;26.324;2023-01-29T03:54:24;98792.78;;;3.73;100.00
9740;BME280;4909;42.680;26.324;2023-01-29T03:56:56;98821.56;;;3.81;100.00
9740;BME280;4909;42.680;26.324;2023-01-29T03:59:34;98821.63;;;3.76;100.00
9740;BME280;4909;42.680;26.324;2023-01-29T04:02:07;98828.72;;;3.68;100.00
9740;BME280;4909;42.680;26.324;2023-01-29T04:04:37;98797.44;;;3.55;100.00
9740;BME280;4909;42.680;26.324;2023-01-29T04:07:09;98832.66;;;4.00;100.00
9740;BME280;4909;42.680;26.324;2023-01-29T04:09:41;98818.59;;;4.02;100.00
9740;BME280;4909;42.680;26.324;2023-01-29T04:12:11;98826.53;;;3.98;100.00
9740;BME280;4909;42.680;26.324;2023-01-29T04:14:39;98833.53;;;4.00;100.00
9740;BME280;4909;42.680;26.324;2023-01-29T04:17:12;98831.63;;;4.08;100.00
9740;BME280;4909;42.680;26.324;2023-01-29T04:19:40;98798.47;;;4.03;100.00
9740;BME280;4909;42.680;26.324;2023-01-29T04:22:11;98830.53;;;4.24;100.00
9740;BME280;4909;42.680;26.324;2023-01-29T04:24:41;98832.44;;;4.13;100.00
9740;BME280;4909;42.680;26.324;2023-01-29T04:27:20;98839.44;;;4.14;100.00
9740;BME280;4909;42.680;26.324;2023-01-29T04:29:59;98841.34;;;4.05;100.00
9740;BME280;4909;42.680;26.324;2023-01-29T04:32:39;98842.88;;;4.18;100.00
9740;BME280;4909;42.680;26.324;2023-01-29T04:35:18;98848.28;;;4.09;99.88
9740;BME280;4909;42.680;26.324;2023-01-29T04:37:59;98845.78;;;4.00;100.00
9740;BME280;4909;42.680;26.324;2023-01-29T04:40:32;98847.75;;;3.84;100.00
9740;BME280;4909;42.680;26.324;2023-01-29T04:43:04;98831.28;;;3.73;100.00
9740;BME280;4909;42.680;26.324;2023-01-29T04:45:40;98843.09;;;4.04;100.00
9740;BME280;4909;42.680;26.324;2023-01-29T04:48:18;98856.06;;;4.13;100.00
9740;BME280;4909;42.680;26.324;2023-01-29T04:50:52;98850.81;;;4.15;100.00
9740;BME280;4909;42.680;26.324;2023-01-29T04:53:25;98854.81;;;4.37;100.00
9740;BME280;4909;42.680;26.324;2023-01-29T04:55:59;98844.94;;;3.98;100.00
9740;BME280;4909;42.680;26.324;2023-01-29T04:58:32;98852.78;;;4.01;100.00
9740;BME280;4909;42.680;26.324;2023-01-29T05:01:04;98857.91;;;4.08;100.00
9740;BME280;4909;42.680;26.324;2023-01-29T05:03:35;98855.22;;;4.13;100.00
9740;BME280;4909;42.680;26.324;2023-01-29T05:06:04;98867.88;;;4.43;99.70
9740;BME280;4909;42.680;26.324;2023-01-29T05:08:33;98873.91;;;4.50;97.51
9740;BME280;4909;42.680;26.324;2023-01-29T05:11:03;98873.78;;;4.56;97.70
9740;BME280;4909;42.680;26.324;2023-01-29T05:13:31;98875.53;;;4.57;97.69
9740;BME280;4909;42.680;26.324;2023-01-29T05:16:03;98870.75;;;4.28;98.04
9740;BME280;4909;42.680;26.324;2023-01-29T05:18:33;98877.97;;;4.14;99.23
9740;BME280;4909;42.680;26.324;2023-01-29T05:21:01;98881.38;;;4.19;98.90
9740;BME280;4909;42.680;26.324;2023-01-29T05:23:30;98872.63;;;4.20;99.04
9740;BME280;4909;42.680;26.324;2023-01-29T05:25:57;98881.97;;;4.37;97.69
9740;BME280;4909;42.680;26.324;2023-01-29T05:28:23;98892.03;;;4.11;98.56
9740;BME280;4909;42.680;26.324;2023-01-29T05:30:51;98886.78;;;4.11;100.00
9740;BME280;4909;42.680;26.324;2023-01-29T05:33:20;98883.22;;;4.12;99.96
9740;BME280;4909;42.680;26.324;2023-01-29T05:35:49;98890.72;;;3.78;99.86
9740;BME280;4909;42.680;26.324;2023-01-29T05:38:17;98894.91;;;3.21;100.00
9740;BME280;4909;42.680;26.324;2023-01-29T05:40:44;98896.28;;;3.56;100.00
9740;BME280;4909;42.680;26.324;2023-01-29T05:43:15;98852.53;;;3.55;100.00
9740;BME280;4909;42.680;26.324;2023-01-29T05:45:43;98878.25;;;3.96;100.00
9740;BME280;4909;42.680;26.324;2023-01-29T05:48:16;98902.94;;;3.81;100.00
9740;BME280;4909;42.680;26.324;2023-01-29T05:50:43;98901.97;;;3.88;100.00
9740;BME280;4909;42.680;26.324;2023-01-29T05:53:11;98905.31;;;4.01;100.00
9740;BME280;4909;42.680;26.324;2023-01-29T05:55:38;98907.81;;;4.07;100.00
9740;BME280;4909;42.680;26.324;2023-01-29T05:58:05;98915.19;;;3.82;100.00
9740;BME280;4909;42.680;26.324;2023-01-29T06:00:32;98914.88;;;4.03;100.00
9740;BME280;4909;42.680;26.324;2023-01-29T06:02:58;98934.06;;;4.11;100.00
9740;BME280;4909;42.680;26.324;2023-01-29T06:05:25;98924.63;;;3.97;99.93
9740;BME280;4909;42.680;26.324;2023-01-29T06:07:52;98927.28;;;3.93;99.54
9740;BME280;4909;42.680;26.324;2023-01-29T06:10:20;98931.63;;;3.96;100.00
9740;BME280;4909;42.680;26.324;2023-01-29T06:12:47;98932.25;;;4.12;100.00
9740;BME280;4909;42.680;26.324;2023-01-29T06:15:14;98931.22;;;4.23;98.70
9740;BME280;4909;42.680;26.324;2023-01-29T06:17:41;98927.06;;;4.09;98.49
9740;BME280;4909;42.680;26.324;2023-01-29T06:20:10;98940.94;;;4.18;98.27
9740;BME280;4909;42.680;26.324;2023-01-29T06:22:37;98949.69;;;4.19;99.50
9740;BME280;4909;42.680;26.324;2023-01-29T06:25:04;98951.00;;;3.86;99.54
9740;BME280;4909;42.680;26.324;2023-01-29T06:27:33;98950.97;;;3.90;100.00
9740;BME280;4909;42.680;26.324;2023-01-29T06:29:59;98952.66;;;3.94;100.00
9740;BME280;4909;42.680;26.324;2023-01-29T06:32:26;98938.59;;;3.97;99.85
9740;BME280;4909;42.680;26.324;2023-01-29T06:34:53;98955.09;;;4.08;99.10
9740;BME280;4909;42.680;26.324;2023-01-29T06:37:19;98965.47;;;4.17;99.63
9740;BME280;4909;42.680;26.324;2023-01-29T06:39:46;98965.47;;;4.17;99.07
9740;BME280;4909;42.680;26.324;2023-01-29T06:42:13;98974.53;;;3.95;100.00
9740;BME280;4909;42.680;26.324;2023-01-29T06:44:41;98971.34;;;3.69;100.00
9740;BME280;4909;42.680;26.324;2023-01-29T06:47:08;98966.72;;;3.89;100.00
9740;BME280;4909;42.680;26.324;2023-01-29T06:49:36;98975.91;;;3.52;100.00
9740;BME280;4909;42.680;26.324;2023-01-29T06:52:03;98975.56;;;3.82;100.00
9740;BME280;4909;42.680;26.324;2023-01-29T06:54:29;98978.84;;;4.01;100.00
9740;BME280;4909;42.680;26.324;2023-01-29T06:56:56;98979.03;;;3.84;100.00
9740;BME280;4909;42.680;26.324;2023-01-29T06:59:23;98973.97;;;3.70;99.85
9740;BME280;4909;42.680;26.324;2023-01-29T07:01:51;98974.88;;;3.66;100.00
9740;BME280;4909;42.680;26.324;2023-01-29T07:04:18;98979.84;;;3.90;100.00
9740;BME280;4909;42.680;26.324;2023-01-29T07:06:44;98985.78;;;4.06;99.77
9740;BME280;4909;42.680;26.324;2023-01-29T07:09:12;98968.41;;;3.94;99.31
9740;BME280;4909;42.680;26.324;2023-01-29T07:11:39;98977.84;;;4.11;98.35
9740;BME280;4909;42.680;26.324;2023-01-29T07:14:06;98988.47;;;4.02;98.59
9740;BME280;4909;42.680;26.324;2023-01-29T07:16:33;98990.03;;;4.13;98.69
9740;BME280;4909;42.680;26.324;2023-01-29T07:19:01;98976.22;;;3.99;97.61
9740;BME280;4909;42.680;26.324;2023-01-29T07:21:28;98988.16;;;4.24;96.97
9740;BME280;4909;42.680;26.324;2023-01-29T07:23:55;98982.16;;;4.15;98.19
9740;BME280;4909;42.680;26.324;2023-01-29T07:26:22;98998.91;;;4.05;98.86
9740;BME280;4909;42.680;26.324;2023-01-29T07:28:49;98997.09;;;4.11;98.33
9740;BME280;4909;42.680;26.324;2023-01-29T07:31:16;98991.59;;;4.26;97.76
9740;BME280;4909;42.680;26.324;2023-01-29T07:33:43;98990.59;;;4.38;95.87
9740;BME280;4909;42.680;26.324;2023-01-29T07:36:12;98995.09;;;4.28;96.56
9740;BME280;4909;42.680;26.324;2023-01-29T07:38:39;98993.69;;;4.03;98.64
9740;BME280;4909;42.680;26.324;2023-01-29T07:41:06;98995.22;;;4.21;99.42
9740;BME280;4909;42.680;26.324;2023-01-29T07:43:33;98996.03;;;4.26;97.89
9740;BME280;4909;42.680;26.324;2023-01-29T07:46:01;99000.22;;;4.36;97.06
9740;BME280;4909;42.680;26.324;2023-01-29T07:48:28;99001.28;;;4.26;97.61
9740;BME280;4909;42.680;26.324;2023-01-29T07:50:56;99001.09;;;4.36;98.13
9740;BME280;4909;42.680;26.324;2023-01-29T07:53:25;98998.22;;;3.90;97.64
9740;BME280;4909;42.680;26.324;2023-01-29T07:55:52;99008.91;;;3.75;99.13
9740;BME280;4909;42.680;26.324;2023-01-29T07:58:18;99008.53;;;4.06;99.51
9740;BME280;4909;42.680;26.324;2023-01-29T08:00:45;99009.28;;;4.15;97.80
9740;BME280;4909;42.680;26.324;2023-01-29T08:03:14;99017.22;;;3.33;99.40
9740;BME280;4909;42.680;26.324;2023-01-29T08:05:41;98994.50;;;3.33;100.00
9740;BME280;4909;42.680;26.324;2023-01-29T08:08:08;99019.63;;;3.56;100.00
9740;BME280;4909;42.680;26.324;2023-01-29T08:10:38;99013.69;;;3.35;100.00
9740;BME280;4909;42.680;26.324;2023-01-29T08:13:06;99012.00;;;3.30;100.00
9740;BME280;4909;42.680;26.324;2023-01-29T08:15:33;99008.22;;;3.57;100.00
9740;BME280;4909;42.680;26.324;2023-01-29T08:18:00;99022.19;;;3.59;100.00
9740;BME280;4909;42.680;26.324;2023-01-29T08:20:27;98995.00;;;3.67;100.00
9740;BME280;4909;42.680;26.324;2023-01-29T08:22:58;99009.66;;;3.86;98.33
9740;BME280;4909;42.680;26.324;2023-01-29T08:25:26;99007.03;;;3.86;96.59
9740;BME280;4909;42.680;26.324;2023-01-29T08:27:55;99033.69;;;4.23;95.73
9740;BME280;4909;42.680;26.324;2023-01-29T08:30:22;99034.63;;;4.21;96.68
9740;BME280;4909;42.680;26.324;2023-01-29T08:32:49;99039.13;;;4.11;97.53
9740;BME280;4909;42.680;26.324;2023-01-29T08:35:16;99040.06;;;4.06;96.53
9740;BME280;4909;42.680;26.324;2023-01-29T08:37:43;99027.03;;;3.97;97.68
9740;BME280;4909;42.680;26.324;2023-01-29T08:40:10;99045.19;;;4.13;97.26
9740;BME280;4909;42.680;26.324;2023-01-29T08:42:38;99040.81;;;4.14;97.04
9740;BME280;4909;42.680;26.324;2023-01-29T08:45:08;99043.75;;;3.88;97.65
9740;BME280;4909;42.680;26.324;2023-01-29T08:47:35;99043.19;;;3.59;99.20
9740;BME280;4909;42.680;26.324;2023-01-29T08:50:03;99030.66;;;3.85;99.25
9740;BME280;4909;42.680;26.324;2023-01-29T08:52:30;99041.22;;;3.82;98.15
9740;BME280;4909;42.680;26.324;2023-01-29T08:54:57;99046.19;;;4.03;97.94
9740;BME280;4909;42.680;26.324;2023-01-29T08:57:24;99041.66;;;4.17;98.23
9740;BME280;4909;42.680;26.324;2023-01-29T08:59:51;99045.19;;;4.16;97.19
9740;BME280;4909;42.680;26.324;2023-01-29T09:02:19;99050.63;;;3.98;95.92
9740;BME280;4909;42.680;26.324;2023-01-29T09:04:45;99050.03;;;3.73;97.80
9740;BME280;4909;42.680;26.324;2023-01-29T09:07:12;99054.31;;;3.83;98.50
9740;BME280;4909;42.680;26.324;2023-01-29T09:09:39;99050.47;;;4.12;97.67
9740;BME280;4909;42.680;26.324;2023-01-29T09:12:06;99052.66;;;3.73;98.77
9740;BME280;4909;42.680;26.324;2023-01-29T09:14:33;99053.78;;;3.53;98.72
9740;BME280;4909;42.680;26.324;2023-01-29T09:17:00;99046.53;;;3.74;100.00
9740;BME280;4909;42.680;26.324;2023-01-29T09:19:28;99041.28;;;3.76;99.65
9740;BME280;4909;42.680;26.324;2023-01-29T09:21:55;99044.31;;;4.16;98.61
9740;BME280;4909;42.680;26.324;2023-01-29T09:24:22;99045.50;;;3.89;97.27
9740;BME280;4909;42.680;26.324;2023-01-29T09:26:49;99039.13;;;4.08;96.42
9740;BME280;4909;42.680;26.324;2023-01-29T09:29:15;99045.25;;;4.10;96.19
9740;BME280;4909;42.680;26.324;2023-01-29T09:31:42;99033.22;;;3.91;95.83
9740;BME280;4909;42.680;26.324;2023-01-29T09:34:09;99043.81;;;3.83;96.71
9740;BME280;4909;42.680;26.324;2023-01-29T09:36:37;99031.31;;;4.02;96.90
9740;BME280;4909;42.680;26.324;2023-01-29T09:39:04;99027.13;;;3.87;96.83
9740;BME280;4909;42.680;26.324;2023-01-29T09:41:40;99025.34;;;3.91;98.41
9740;BME280;4909;42.680;26.324;2023-01-29T09:44:15;98989.72;;;3.69;98.78
9740;BME280;4909;42.680;26.324;2023-01-29T09:46:46;99029.78;;;3.86;98.90
9740;BME280;4909;42.680;26.324;2023-01-29T09:49:21;99018.13;;;4.08;97.35
9740;BME280;4909;42.680;26.324;2023-01-29T09:51:56;99033.63;;;4.26;94.33
9740;BME280;4909;42.680;26.324;2023-01-29T09:54:27;99026.56;;;4.33;94.34
9740;BME280;4909;42.680;26.324;2023-01-29T09:56:56;99022.03;;;3.75;95.88
9740;BME280;4909;42.680;26.324;2023-01-29T09:59:25;99030.59;;;3.89;96.26
9740;BME280;4909;42.680;26.324;2023-01-29T10:02:03;99034.00;;;3.98;95.53
9740;BME280;4909;42.680;26.324;2023-01-29T10:04:51;99029.44;;;4.16;94.23
9740;BME280;4909;42.680;26.324;2023-01-29T10:07:52;99026.56;;;4.31;93.26
9740;BME280;4909;42.680;26.324;2023-01-29T10:10:38;99020.31;;;4.42;94.50
9740;BME280;4909;42.680;26.324;2023-01-29T10:13:17;99024.47;;;4.56;93.48
9740;BME280;4909;42.680;26.324;2023-01-29T10:15:54;99017.66;;;4.45;93.18
9740;BME280;4909;42.680;26.324;2023-01-29T10:18:36;99012.19;;;4.60;91.41
9740;BME280;4909;42.680;26.324;2023-01-29T10:21:23;99017.59;;;4.48;91.94
9740;BME280;4909;42.680;26.324;2023-01-29T10:24:01;99005.31;;;4.50;92.82
9740;BME280;4909;42.680;26.324;2023-01-29T10:26:32;99007.09;;;4.48;93.22
9740;BME280;4909;42.680;26.324;2023-01-29T10:29:05;98998.41;;;4.43;93.88
9740;BME280;4909;42.680;26.324;2023-01-29T10:31:35;98994.94;;;4.39;94.46
9740;BME280;4909;42.680;26.324;2023-01-29T10:34:08;98993.88;;;4.54;94.05
9740;BME280;4909;42.680;26.324;2023-01-29T10:36:40;98995.22;;;4.21;94.89
9740;BME280;4909;42.680;26.324;2023-01-29T10:39:14;98990.56;;;4.40;95.37
9740;BME280;4909;42.680;26.324;2023-01-29T10:41:52;98983.66;;;4.31;96.29
9740;BME280;4909;42.680;26.324;2023-01-29T10:44:33;98983.41;;;4.49;96.14
9740;BME280;4909;42.680;26.324;2023-01-29T10:47:25;98972.31;;;4.29;97.26
9740;BME280;4909;42.680;26.324;2023-01-29T10:50:14;98982.47;;;4.55;96.81
9740;BME280;4909;42.680;26.324;2023-01-29T10:52:54;98985.97;;;4.54;97.07
9740;BME280;4909;42.680;26.324;2023-01-29T10:55:40;98978.31;;;4.37;96.50
9740;BME280;4909;42.680;26.324;2023-01-29T10:58:17;98976.56;;;4.37;96.39
9740;BME280;4909;42.680;26.324;2023-01-29T11:00:47;98971.94;;;4.55;95.87
9740;BME280;4909;42.680;26.324;2023-01-29T11:03:15;98961.59;;;4.43;94.04
9740;BME280;4909;42.680;26.324;2023-01-29T11:05:48;98963.41;;;4.39;95.19
9740;BME280;4909;42.680;26.324;2023-01-29T11:08:20;98961.09;;;4.18;96.30
9740;BME280;4909;42.680;26.324;2023-01-29T11:10:56;98966.06;;;4.37;95.27
9740;BME280;4909;42.680;26.324;2023-01-29T11:13:30;98959.78;;;4.48;94.27
9740;BME280;4909;42.680;26.324;2023-01-29T11:15:58;98947.06;;;4.17;95.67
9740;BME280;4909;42.680;26.324;2023-01-29T11:18:24;98955.44;;;4.45;95.87
9740;BME280;4909;42.680;26.324;2023-01-29T11:21:00;98951.59;;;4.08;97.05
9740;BME280;4909;42.680;26.324;2023-01-29T11:23:29;98944.31;;;4.28;97.91
9740;BME280;4909;42.680;26.324;2023-01-29T11:25:59;98922.75;;;4.06;97.72
9740;BME280;4909;42.680;26.324;2023-01-29T11:28:36;98945.25;;;4.22;96.36
9740;BME280;4909;42.680;26.324;2023-01-29T11:31:14;98947.88;;;4.24;95.89
9740;BME280;4909;42.680;26.324;2023-01-29T11:33:42;98937.06;;;4.45;96.56
9740;BME280;4909;42.680;26.324;2023-01-29T11:36:20;98933.81;;;4.26;96.54
9740;BME280;4909;42.680;26.324;2023-01-29T11:39:07;98930.28;;;4.27;96.91
9740;BME280;4909;42.680;26.324;2023-01-29T11:41:43;98934.50;;;4.39;97.13
9740;BME280;4909;42.680;26.324;2023-01-29T11:44:18;98928.00;;;4.61;95.44
9740;BME280;4909;42.680;26.324;2023-01-29T11:46:44;98933.91;;;4.75;95.40
9740;BME280;4909;42.680;26.324;2023-01-29T11:49:21;98931.25;;;4.78;94.75
9740;BME280;4909;42.680;26.324;2023-01-29T11:52:08;98924.56;;;4.58;96.81
9740;BME280;4909;42.680;26.324;2023-01-29T11:54:38;98931.19;;;4.83;95.66
9740;BME280;4909;42.680;26.324;2023-01-29T11:57:24;98923.25;;;4.85;96.21
9740;BME280;4909;42.680;26.324;2023-01-29T11:59:52;98927.69;;;4.82;95.31
9740;BME280;4909;42.680;26.324;2023-01-29T12:02:31;98930.31;;;4.82;95.17
9740;BME280;4909;42.680;26.324;2023-01-29T12:05:03;98923.41;;;4.19;96.98
9740;BME280;4909;42.680;26.324;2023-01-29T12:07:33;98917.28;;;4.18;98.55
9740;BME280;4909;42.680;26.324;2023-01-29T12:10:00;98916.06;;;4.41;99.02
9740;BME280;4909;42.680;26.324;2023-01-29T12:12:31;98918.13;;;4.75;97.65
9740;BME280;4909;42.680;26.324;2023-01-29T12:15:15;98917.97;;;4.85;96.02
9740;BME280;4909;42.680;26.324;2023-01-29T12:17:49;98920.13;;;4.61;96.45
9740;BME280;4909;42.680;26.324;2023-01-29T12:20:22;98912.97;;;4.71;96.73
9740;BME280;4909;42.680;26.324;2023-01-29T12:22:56;98918.84;;;4.87;95.89
9740;BME280;4909;42.680;26.324;2023-01-29T12:25:43;98910.25;;;4.75;94.63
9740;BME280;4909;42.680;26.324;2023-01-29T12:28:21;98905.38;;;4.54;96.67
9740;BME280;4909;42.680;26.324;2023-01-29T12:31:01;98916.31;;;4.80;97.80
9740;BME280;4909;42.680;26.324;2023-01-29T12:33:37;98911.13;;;4.76;95.04
9740;BME280;4909;42.680;26.324;2023-01-29T12:36:12;98924.16;;;4.84;94.71
9740;BME280;4909;42.680;26.324;2023-01-29T12:38:42;98918.03;;;4.83;96.30
9740;BME280;4909;42.680;26.324;2023-01-29T12:41:23;98922.06;;;5.02;95.14
9740;BME280;4909;42.680;26.324;2023-01-29T12:43:55;98917.53;;;4.60;95.99
9740;BME280;4909;42.680;26.324;2023-01-29T12:46:26;98915.88;;;4.54;97.08
9740;BME280;4909;42.680;26.324;2023-01-29T12:48:55;98920.19;;;4.58;96.85
9740;BME280;4909;42.680;26.324;2023-01-29T12:51:27;98914.94;;;4.58;97.70
9740;BME280;4909;42.680;26.324;2023-01-29T12:53:59;98919.72;;;4.86;97.18
9740;BME280;4909;42.680;26.324;2023-01-29T12:56:33;98924.00;;;4.93;95.07
9740;BME280;4909;42.680;26.324;2023-01-29T12:59:05;98905.06;;;4.71;94.92
9740;BME280;4909;42.680;26.324;2023-01-29T13:01:38;98900.69;;;4.71;95.99
9740;BME280;4909;42.680;26.324;2023-01-29T13:04:12;98930.06;;;4.96;93.91
9740;BME280;4909;42.680;26.324;2023-01-29T13:06:43;98923.69;;;5.09;93.79
9740;BME280;4909;42.680;26.324;2023-01-29T13:09:14;98923.22;;;4.88;95.07
9740;BME280;4909;42.680;26.324;2023-01-29T13:11:48;98917.84;;;4.94;95.57
9740;BME280;4909;42.680;26.324;2023-01-29T13:14:22;98919.72;;;4.86;94.63
9740;BME280;4909;42.680;26.324;2023-01-29T13:16:51;98922.31;;;4.89;94.77
9740;BME280;4909;42.680;26.324;2023-01-29T13:19:24;98894.63;;;4.68;94.37
9740;BME280;4909;42.680;26.324;2023-01-29T13:21:54;98921.91;;;5.11;94.34
9740;BME280;4909;42.680;26.324;2023-01-29T13:24:23;98928.63;;;5.28;94.04
9740;BME280;4909;42.680;26.324;2023-01-29T13:26:51;98930.50;;;5.21;95.11
9740;BME280;4909;42.680;26.324;2023-01-29T13:29:24;98879.22;;;4.94;94.16
9740;BME280;4909;42.680;26.324;2023-01-29T13:31:51;98935.78;;;5.19;94.50
9740;BME280;4909;42.680;26.324;2023-01-29T13:34:22;98924.09;;;4.85;94.19
9740;BME280;4909;42.680;26.324;2023-01-29T13:36:51;98934.47;;;4.94;95.04
9740;BME280;4909;42.680;26.324;2023-01-29T13:39:23;98934.28;;;5.05;95.58
9740;BME280;4909;42.680;26.324;2023-01-29T13:41:53;98929.09;;;5.00;93.99